Time;durP1;ratioP1;P1;durP2;ratioP2;P2;SDS_P1;SDS_P2;PMS_P1;PMS_P2;Temp;Humidity;BMP_temperature;BMP_pressure;BME280_temperature;BME280_humidity;BME280_pressure;Samples;Min_cycle;Max_cycle;Signal;HPM_P1;HPM_P2
2023/04/13 00:00:35;;;;;;;2.30;2.10;;;9.00;99.90;;;;;;4975889;28;20054;-65
2023/04/13 00:03:01;;;;;;;2.90;2.58;;;9.00;99.90;;;;;;4964820;28;20075;-66
2023/04/13 00:05:27;;;;;;;2.67;2.20;;;9.00;99.90;;;;;;4962031;28;20571;-65
2023/04/13 00:07:54;;;;;;;3.83;2.45;;;9.00;99.90;;;;;;4976116;28;20027;-66
2023/04/13 00:10:20;;;;;;;2.78;2.17;;;9.00;99.90;;;;;;4961885;28;20042;-65
2023/04/13 00:12:47;;;;;;;3.17;2.30;;;8.90;99.90;;;;;;4974925;28;20409;-65
2023/04/13 00:15:21;;;;;;;4.90;2.35;;;9.00;99.90;;;;;;4968234;28;20392;-66
2023/04/13 00:17:47;;;;;;;3.47;2.22;;;9.00;99.90;;;;;;4972123;28;20035;-66
2023/04/13 00:20:13;;;;;;;4.07;2.50;;;9.10;99.90;;;;;;4971427;28;20057;-66
2023/04/13 00:22:43;;;;;;;3.88;2.40;;;9.10;99.90;;;;;;4974687;28;20042;-65
2023/04/13 00:25:10;;;;;;;3.08;2.70;;;9.20;99.90;;;;;;4971840;28;20042;-64
2023/04/13 00:27:41;;;;;;;7.10;4.18;;;9.20;99.90;;;;;;4973675;28;20509;-65
2023/04/13 00:30:08;;;;;;;6.68;4.28;;;9.20;99.90;;;;;;4970755;28;20039;-66
2023/04/13 00:32:35;;;;;;;6.13;3.95;;;9.10;99.90;;;;;;4981702;28;20046;-67
2023/04/13 00:35:01;;;;;;;4.53;3.47;;;9.10;99.90;;;;;;4982378;28;20064;-66
2023/04/13 00:37:29;;;;;;;4.65;3.30;;;9.10;99.90;;;;;;4977947;28;20066;-66
2023/04/13 00:39:54;;;;;;;4.90;2.67;;;9.10;99.90;;;;;;4980925;28;20090;-66
2023/04/13 00:42:20;;;;;;;4.03;2.60;;;9.10;99.90;;;;;;4984229;28;20034;-67
2023/04/13 00:44:46;;;;;;;3.47;2.35;;;9.10;99.90;;;;;;4979928;28;20569;-66
2023/04/13 00:47:16;;;;;;;3.25;2.20;;;9.10;99.90;;;;;;4972622;28;20049;-67
2023/04/13 00:49:43;;;;;;;2.78;2.03;;;9.10;99.90;;;;;;4958737;28;20057;-66
2023/04/13 00:52:10;;;;;;;2.28;1.80;;;9.10;99.90;;;;;;4978053;28;20033;-66
2023/04/13 00:54:37;;;;;;;3.05;1.63;;;9.00;99.90;;;;;;4974087;28;20053;-65
2023/04/13 00:57:04;;;;;;;2.80;1.70;;;9.00;99.90;;;;;;4967366;28;20042;-66
2023/04/13 00:59:30;;;;;;;2.38;2.00;;;9.00;99.90;;;;;;4969751;28;20058;-68
2023/04/13 01:01:56;;;;;;;2.88;2.05;;;9.00;99.90;;;;;;4973511;28;20035;-68
2023/04/13 01:04:26;;;;;;;3.00;1.90;;;9.00;99.90;;;;;;4955779;28;20046;-66
2023/04/13 01:07:02;;;;;;;2.17;1.70;;;9.10;99.90;;;;;;4966276;28;20042;-66
2023/04/13 01:09:38;;;;;;;3.00;1.70;;;9.10;99.90;;;;;;4973052;28;20035;-66
2023/04/13 01:12:33;;;;;;;1.80;1.67;;;9.20;99.90;;;;;;4976981;28;20510;-66
2023/04/13 01:15:10;;;;;;;4.15;2.17;;;9.20;99.90;;;;;;4978347;28;20030;-66
2023/04/13 01:17:37;;;;;;;3.85;1.85;;;9.20;99.90;;;;;;4977331;28;20034;-66
2023/04/13 01:20:11;;;;;;;2.55;1.98;;;9.30;99.90;;;;;;4970994;28;20049;-66
2023/04/13 01:22:45;;;;;;;2.67;1.63;;;9.20;99.90;;;;;;4963901;28;20565;-66
2023/04/13 01:25:30;;;;;;;2.70;1.88;;;9.20;99.90;;;;;;4966928;28;20069;-66
2023/04/13 01:28:00;;;;;;;3.35;1.70;;;9.20;99.90;;;;;;4959223;28;20579;-67
2023/04/13 01:30:27;;;;;;;2.08;1.60;;;9.20;99.90;;;;;;4966174;28;20038;-67
2023/04/13 01:32:54;;;;;;;2.83;1.80;;;9.10;99.90;;;;;;4963657;28;20046;-66
2023/04/13 01:35:21;;;;;;;1.65;1.50;;;9.20;99.90;;;;;;4950738;28;20081;-65
2023/04/13 01:37:49;;;;;;;4.38;1.70;;;9.20;99.90;;;;;;4963013;28;20101;-65
2023/04/13 01:40:14;;;;;;;2.80;1.77;;;9.20;99.90;;;;;;4945858;28;20050;-64
2023/04/13 01:42:41;;;;;;;5.00;1.90;;;9.30;99.90;;;;;;4966532;28;20046;-65
2023/04/13 01:45:35;;;;;;;2.28;2.08;;;9.40;99.90;;;;;;4964697;28;20121;-65
2023/04/13 01:48:08;;;;;;;3.80;2.35;;;9.40;99.90;;;;;;4960511;28;20641;-65
2023/04/13 01:50:40;;;;;;;3.58;2.05;;;9.40;99.90;;;;;;4960223;28;20034;-65
2023/04/13 01:53:10;;;;;;;3.03;2.08;;;9.50;99.90;;;;;;4966899;28;20035;-65
2023/04/13 01:55:38;;;;;;;5.65;2.30;;;9.40;99.90;;;;;;4952425;28;20038;-65
2023/04/13 01:58:05;;;;;;;2.40;1.98;;;9.50;99.90;;;;;;4958859;28;20041;-65
2023/04/13 02:00:35;;;;;;;2.15;1.80;;;9.40;99.90;;;;;;4943338;28;20047;-66
2023/04/13 02:03:05;;;;;;;4.05;2.38;;;9.50;99.90;;;;;;4967047;28;20126;-66
2023/04/13 02:05:32;;;;;;;4.25;2.67;;;9.50;99.90;;;;;;4959709;28;21967;-66
2023/04/13 02:07:58;;;;;;;3.83;2.47;;;9.50;99.90;;;;;;4960741;28;20069;-65
2023/04/13 02:10:25;;;;;;;3.72;2.67;;;9.50;99.90;;;;;;4967693;28;20042;-65
2023/04/13 02:12:53;;;;;;;5.47;2.90;;;9.60;99.90;;;;;;4959194;28;20042;-67
2023/04/13 02:15:19;;;;;;;3.75;1.92;;;9.50;99.90;;;;;;4959710;28;21295;-67
2023/04/13 02:17:44;;;;;;;5.50;2.35;;;9.50;99.90;;;;;;4970138;28;20049;-66
2023/04/13 02:20:11;;;;;;;3.05;2.20;;;9.50;99.90;;;;;;4966876;28;20072;-66
2023/04/13 02:22:38;;;;;;;4.20;2.25;;;9.60;99.90;;;;;;4966240;28;21147;-66
2023/04/13 02:25:05;;;;;;;3.90;2.75;;;9.60;99.90;;;;;;4968209;28;20756;-67
2023/04/13 02:27:33;;;;;;;3.35;2.80;;;9.60;99.90;;;;;;4987124;28;20035;-67
2023/04/13 02:29:59;;;;;;;3.83;2.80;;;9.70;99.90;;;;;;4963041;28;20480;-67
2023/04/13 02:32:24;;;;;;;4.38;2.40;;;9.60;99.90;;;;;;4970643;28;20031;-67
2023/04/13 02:34:50;;;;;;;3.13;2.25;;;9.60;99.90;;;;;;4972108;28;20502;-66
2023/04/13 02:37:16;;;;;;;3.05;2.35;;;9.60;99.90;;;;;;4975691;28;20042;-67
2023/04/13 02:39:41;;;;;;;5.10;3.17;;;9.70;99.90;;;;;;4967671;28;20061;-67
2023/04/13 02:42:08;;;;;;;8.00;4.35;;;9.70;99.90;;;;;;4965315;28;20038;-67
2023/04/13 02:44:33;;;;;;;9.93;5.72;;;9.70;99.90;;;;;;4946498;28;20617;-66
2023/04/13 02:47:00;;;;;;;13.82;7.03;;;9.70;99.90;;;;;;4968424;28;20046;-67
2023/04/13 02:49:26;;;;;;;9.73;5.70;;;9.70;99.90;;;;;;4967468;28;20096;-67
2023/04/13 02:51:52;;;;;;;12.50;6.90;;;9.60;99.90;;;;;;4971157;28;20034;-67
2023/04/13 02:54:18;;;;;;;11.00;6.85;;;9.70;99.90;;;;;;4965149;28;20403;-66
2023/04/13 02:56:44;;;;;;;13.02;8.32;;;9.70;99.90;;;;;;4965984;28;21607;-66
2023/04/13 02:59:09;;;;;;;12.60;7.78;;;9.80;99.90;;;;;;4966890;28;20035;-67
2023/04/13 03:01:35;;;;;;;11.82;6.82;;;9.90;99.90;;;;;;4955699;28;20047;-67
2023/04/13 03:04:01;;;;;;;9.25;6.57;;;10.00;99.90;;;;;;4967238;28;20467;-67
2023/04/13 03:06:26;;;;;;;13.05;7.93;;;10.00;99.90;;;;;;4958275;28;20058;-66
2023/04/13 03:08:53;;;;;;;10.80;7.10;;;10.00;99.90;;;;;;4963888;28;20046;-66
2023/04/13 03:11:20;;;;;;;16.02;10.63;;;10.00;99.90;;;;;;4967749;28;20034;-66
2023/04/13 03:13:46;;;;;;;16.48;10.70;;;10.00;99.90;;;;;;4950961;28;21790;-66
2023/04/13 03:16:11;;;;;;;13.38;9.07;;;10.00;99.90;;;;;;4970170;28;20047;-66
2023/04/13 03:18:37;;;;;;;11.95;8.38;;;9.90;99.90;;;;;;4959294;28;20047;-67
2023/04/13 03:21:04;;;;;;;12.23;7.88;;;9.80;99.90;;;;;;4965821;28;20046;-66
2023/04/13 03:23:30;;;;;;;16.10;10.90;;;9.80;99.90;;;;;;4970124;28;20034;-66
2023/04/13 03:25:56;;;;;;;18.13;12.68;;;9.80;99.90;;;;;;4959389;28;20133;-66
2023/04/13 03:28:22;;;;;;;19.58;12.63;;;9.80;99.90;;;;;;4968279;28;20047;-66
2023/04/13 03:30:48;;;;;;;21.33;13.55;;;9.80;99.90;;;;;;4967721;28;20079;-66
2023/04/13 03:33:14;;;;;;;19.80;13.35;;;9.80;99.90;;;;;;4965953;28;20404;-67
2023/04/13 03:35:41;;;;;;;23.08;15.48;;;9.80;99.90;;;;;;4959367;28;20034;-67
2023/04/13 03:38:06;;;;;;;19.70;14.35;;;9.90;99.90;;;;;;4967514;28;20801;-67
2023/04/13 03:40:32;;;;;;;13.43;10.00;;;9.80;99.90;;;;;;4961703;28;20053;-67
2023/04/13 03:42:57;;;;;;;8.50;6.32;;;9.90;99.90;;;;;;4968576;28;20082;-66
2023/04/13 03:45:23;;;;;;;12.18;8.52;;;9.90;99.90;;;;;;4967126;28;20054;-67
2023/04/13 03:47:49;;;;;;;12.50;8.40;;;10.00;99.90;;;;;;4960959;28;20037;-65
2023/04/13 03:50:15;;;;;;;12.82;8.50;;;10.10;99.90;;;;;;4966021;28;20053;-66
2023/04/13 03:52:40;;;;;;;15.55;11.18;;;10.00;99.90;;;;;;4953811;28;20050;-65
2023/04/13 03:55:07;;;;;;;26.27;16.67;;;10.10;99.90;;;;;;4957257;28;20045;-65
2023/04/13 03:57:33;;;;;;;19.58;14.23;;;10.10;99.90;;;;;;4950955;28;20043;-65
2023/04/13 03:59:58;;;;;;;11.40;8.05;;;10.10;99.90;;;;;;4943052;28;20054;-66
2023/04/13 04:02:24;;;;;;;22.25;14.80;;;10.10;99.90;;;;;;4959825;28;20044;-65
2023/04/13 04:04:49;;;;;;;15.30;11.68;;;10.10;99.90;;;;;;4967705;28;20039;-66
2023/04/13 04:07:15;;;;;;;13.07;9.10;;;10.10;99.90;;;;;;4953592;28;20094;-65
2023/04/13 04:09:41;;;;;;;13.60;8.73;;;10.10;99.90;;;;;;4950885;28;20042;-66
2023/04/13 04:12:07;;;;;;;11.93;7.93;;;10.10;99.90;;;;;;4962831;28;20717;-65
2023/04/13 04:14:33;;;;;;;11.25;7.70;;;10.10;99.90;;;;;;4962888;28;20034;-65
2023/04/13 04:16:58;;;;;;;13.27;7.43;;;10.10;99.90;;;;;;4959425;28;20436;-66
2023/04/13 04:19:24;;;;;;;9.15;7.28;;;10.00;99.90;;;;;;4963052;28;20049;-65
2023/04/13 04:21:51;;;;;;;15.32;10.80;;;10.10;99.90;;;;;;4964885;28;20058;-65
2023/04/13 04:24:21;;;;;;;16.40;12.10;;;10.10;99.90;;;;;;4960242;28;20554;-65
2023/04/13 04:26:48;;;;;;;18.58;14.18;;;10.10;99.90;;;;;;4963479;28;20062;-66
2023/04/13 04:29:20;;;;;;;20.70;15.95;;;10.20;99.90;;;;;;4965063;28;20041;-65
2023/04/13 04:31:51;;;;;;;;;;;10.20;99.90;;;;;;4973380;28;20414;-66
2023/04/13 04:34:18;;;;;;;14.65;10.68;;;10.30;99.90;;;;;;4965913;28;20167;-66
2023/04/13 04:36:50;;;;;;;14.60;11.70;;;10.30;99.90;;;;;;4945530;28;20049;-66
2023/04/13 04:39:21;;;;;;;16.42;13.52;;;10.30;99.90;;;;;;4961176;28;20613;-65
2023/04/13 04:41:48;;;;;;;27.75;19.40;;;10.30;99.90;;;;;;4968142;28;20584;-65
2023/04/13 04:44:15;;;;;;;31.83;22.55;;;10.30;99.90;;;;;;4971877;28;20166;-65
2023/04/13 04:46:42;;;;;;;40.25;26.98;;;10.30;99.90;;;;;;4964277;28;20163;-66
2023/04/13 04:49:08;;;;;;;34.25;24.23;;;10.30;99.90;;;;;;4959189;28;20052;-66
2023/04/13 04:51:35;;;;;;;31.70;23.38;;;10.30;99.90;;;;;;4961332;28;20050;-67
2023/04/13 04:54:02;;;;;;;27.67;19.35;;;10.30;99.90;;;;;;4969467;28;20046;-67
2023/04/13 04:56:28;;;;;;;17.42;10.43;;;10.40;99.90;;;;;;4962006;28;20039;-69
2023/04/13 04:58:54;;;;;;;6.03;4.00;;;10.40;99.90;;;;;;4963593;28;20121;-69
2023/04/13 05:01:25;;;;;;;4.18;2.63;;;10.40;99.90;;;;;;4965683;28;20085;-68
2023/04/13 05:03:52;;;;;;;4.43;2.42;;;10.40;99.90;;;;;;4961999;28;20696;-68
2023/04/13 05:06:18;;;;;;;3.53;2.47;;;10.40;99.90;;;;;;4947343;28;20059;-69
2023/04/13 05:08:44;;;;;;;4.45;2.40;;;10.40;99.90;;;;;;4948037;28;20046;-69
2023/04/13 05:11:09;;;;;;;8.60;2.70;;;10.40;99.90;;;;;;4969043;28;20034;-68
2023/04/13 05:13:35;;;;;;;4.03;2.30;;;10.40;99.90;;;;;;4964547;28;20878;-69
2023/04/13 05:16:01;;;;;;;5.35;2.17;;;10.50;99.90;;;;;;4964496;28;20521;-68
2023/04/13 05:18:30;;;;;;;5.22;2.60;;;10.50;99.90;;;;;;4963971;28;20094;-66
2023/04/13 05:20:56;;;;;;;5.15;2.75;;;10.50;99.90;;;;;;4961351;28;20062;-67
2023/04/13 05:23:22;;;;;;;4.22;2.75;;;10.60;99.90;;;;;;4960648;28;20038;-67
2023/04/13 05:25:47;;;;;;;3.50;2.85;;;10.50;99.90;;;;;;4961752;28;20411;-67
2023/04/13 05:28:13;;;;;;;3.28;2.55;;;10.50;99.90;;;;;;4963644;28;20096;-68
2023/04/13 05:30:39;;;;;;;5.65;3.22;;;10.60;99.90;;;;;;4936401;28;20047;-68
2023/04/13 05:33:06;;;;;;;4.57;2.92;;;10.70;99.90;;;;;;4952668;28;20046;-68
2023/04/13 05:35:32;;;;;;;4.78;2.97;;;10.70;99.90;;;;;;4952440;28;20051;-74
2023/04/13 05:37:59;;;;;;;4.38;2.90;;;10.80;99.90;;;;;;4967439;28;20050;-67
2023/04/13 05:40:25;;;;;;;6.35;3.20;;;10.90;99.90;;;;;;4968966;28;20073;-68
2023/04/13 05:42:50;;;;;;;3.72;3.00;;;11.00;99.90;;;;;;4967313;28;20043;-67
2023/04/13 05:45:16;;;;;;;4.57;2.75;;;11.00;99.90;;;;;;4959453;28;20054;-67
2023/04/13 05:47:44;;;;;;;4.50;3.15;;;11.00;99.90;;;;;;4968910;28;20142;-67
2023/04/13 05:50:10;;;;;;;4.30;3.30;;;11.10;99.90;;;;;;4977633;28;20046;-67
2023/04/13 05:52:35;;;;;;;4.13;3.17;;;11.10;99.90;;;;;;4973351;28;20047;-67
2023/04/13 05:55:01;;;;;;;4.78;3.28;;;11.10;99.90;;;;;;4969011;28;20045;-67
2023/04/13 05:57:27;;;;;;;5.88;3.55;;;11.20;99.90;;;;;;4976325;28;20034;-67
2023/04/13 05:59:53;;;;;;;6.13;4.15;;;11.20;99.90;;;;;;4969443;28;20077;-67
2023/04/13 06:02:19;;;;;;;6.70;4.03;;;11.30;99.90;;;;;;4978370;28;20049;-67
2023/04/13 06:04:45;;;;;;;5.47;3.75;;;11.20;99.90;;;;;;4980173;28;21263;-67
2023/04/13 06:07:15;;;;;;;5.78;3.58;;;11.30;99.90;;;;;;4978483;28;20114;-67
2023/04/13 06:09:41;;;;;;;7.18;3.58;;;11.30;99.90;;;;;;4963838;28;20125;-67
2023/04/13 06:12:06;;;;;;;8.27;3.25;;;11.30;99.90;;;;;;4973993;28;20038;-67
2023/04/13 06:14:33;;;;;;;5.38;3.38;;;11.40;99.90;;;;;;4976506;28;20105;-67
2023/04/13 06:16:59;;;;;;;5.90;3.58;;;11.40;99.90;;;;;;4975388;28;20074;-67
2023/04/13 06:19:25;;;;;;;9.27;3.72;;;11.50;99.90;;;;;;4974725;28;20375;-67
2023/04/13 06:21:51;;;;;;;5.35;3.90;;;11.40;99.90;;;;;;4973785;28;20034;-67
2023/04/13 06:24:17;;;;;;;5.30;3.20;;;11.50;99.90;;;;;;4969769;28;20118;-67
2023/04/13 06:26:42;;;;;;;4.95;3.45;;;11.50;99.90;;;;;;4968526;28;20648;-67
2023/04/13 06:29:08;;;;;;;5.60;3.83;;;11.60;99.90;;;;;;4969693;28;20041;-67
2023/04/13 06:31:34;;;;;;;4.80;3.38;;;11.70;99.90;;;;;;4968218;28;20038;-67
2023/04/13 06:34:01;;;;;;;5.97;3.65;;;11.70;99.90;;;;;;4965175;28;20038;-67
2023/04/13 06:36:26;;;;;;;4.68;3.63;;;11.70;99.90;;;;;;4966773;28;20030;-67
2023/04/13 06:38:53;;;;;;;4.57;3.00;;;11.80;99.90;;;;;;4967571;28;20557;-67
2023/04/13 06:41:19;;;;;;;4.60;3.30;;;11.90;99.90;;;;;;4972745;28;20043;-67
2023/04/13 06:43:45;;;;;;;5.78;3.80;;;12.00;99.90;;;;;;4957837;28;20041;-66
2023/04/13 06:46:11;;;;;;;5.20;3.30;;;12.00;99.90;;;;;;4967484;28;20078;-67
2023/04/13 06:48:36;;;;;;;7.30;3.50;;;12.10;99.90;;;;;;4966391;28;20097;-67
2023/04/13 06:51:02;;;;;;;7.25;4.32;;;12.20;99.90;;;;;;4972293;28;20035;-67
2023/04/13 06:53:28;;;;;;;5.38;3.45;;;12.30;99.90;;;;;;4973037;28;20030;-67
2023/04/13 06:55:53;;;;;;;9.82;3.72;;;12.40;99.90;;;;;;4975618;28;20117;-67
2023/04/13 06:58:21;;;;;;;9.45;5.00;;;12.50;99.90;;;;;;4974737;28;20049;-67
2023/04/13 07:00:46;;;;;;;6.25;4.05;;;12.50;99.60;;;;;;4970217;28;20045;-67
2023/04/13 07:03:12;;;;;;;5.95;3.80;;;12.60;98.30;;;;;;4974910;28;20680;-67
2023/04/13 07:05:38;;;;;;;4.90;2.80;;;12.50;98.30;;;;;;4969719;28;20042;-67
2023/04/13 07:08:05;;;;;;;4.95;2.92;;;12.60;97.80;;;;;;4967534;28;20041;-67
2023/04/13 07:10:30;;;;;;;6.22;3.60;;;12.60;96.50;;;;;;4968621;28;20039;-68
2023/04/13 07:12:56;;;;;;;6.80;3.25;;;12.70;95.70;;;;;;4979010;28;20129;-67
2023/04/13 07:15:22;;;;;;;4.82;2.80;;;12.70;93.50;;;;;;4972055;28;20050;-66
2023/04/13 07:17:48;;;;;;;5.45;3.15;;;12.70;93.70;;;;;;4976291;28;20031;-67
2023/04/13 07:20:13;;;;;;;3.90;2.90;;;12.70;93.50;;;;;;4958509;28;20140;-66
2023/04/13 07:22:39;;;;;;;3.50;2.88;;;12.70;93.50;;;;;;4971853;28;20060;-67
2023/04/13 07:25:06;;;;;;;6.15;2.70;;;12.80;93.20;;;;;;4978169;28;20129;-67
2023/04/13 07:27:32;;;;;;;8.50;3.35;;;12.80;93.10;;;;;;4968900;28;20027;-67
2023/04/13 07:29:59;;;;;;;5.68;3.28;;;13.00;92.30;;;;;;4965430;28;20055;-67
2023/04/13 07:32:26;;;;;;;5.57;2.75;;;13.00;92.50;;;;;;4971792;28;20784;-66
2023/04/13 07:34:52;;;;;;;5.70;3.17;;;13.10;92.00;;;;;;4968312;28;20511;-67
2023/04/13 07:37:17;;;;;;;4.18;2.72;;;13.20;92.10;;;;;;4951409;28;20042;-67
2023/04/13 07:39:43;;;;;;;6.07;2.65;;;13.20;91.80;;;;;;4962567;28;20060;-67
2023/04/13 07:42:09;;;;;;;8.10;3.35;;;13.20;91.60;;;;;;4962151;28;20084;-67
2023/04/13 07:44:35;;;;;;;7.18;5.10;;;13.30;91.20;;;;;;4972450;28;20046;-67
2023/04/13 07:47:01;;;;;;;4.97;3.35;;;13.30;91.30;;;;;;4963836;28;20026;-67
2023/04/13 07:49:27;;;;;;;7.95;5.13;;;13.50;92.00;;;;;;4972341;28;20072;-67
2023/04/13 07:51:53;;;;;;;5.03;2.88;;;13.60;90.50;;;;;;4968145;28;20114;-67
2023/04/13 07:54:18;;;;;;;7.97;3.65;;;13.60;88.20;;;;;;4959023;28;20111;-67
2023/04/13 07:56:44;;;;;;;8.25;5.18;;;13.60;88.90;;;;;;4969101;28;20060;-65
2023/04/13 07:59:10;;;;;;;6.65;3.40;;;13.70;86.70;;;;;;4963487;28;20034;-66
2023/04/13 08:01:35;;;;;;;10.05;3.47;;;13.70;87.90;;;;;;4968804;28;20496;-66
2023/04/13 08:04:01;;;;;;;4.03;3.15;;;13.70;87.90;;;;;;4952205;28;20568;-66
2023/04/13 08:06:27;;;;;;;5.30;3.47;;;13.80;86.80;;;;;;4963839;28;20760;-65
2023/04/13 08:08:53;;;;;;;4.53;2.70;;;13.80;85.90;;;;;;4954664;28;20110;-64
2023/04/13 08:11:19;;;;;;;12.18;3.47;;;13.90;86.70;;;;;;4968539;28;20097;-65
2023/04/13 08:13:44;;;;;;;5.90;3.15;;;14.10;87.80;;;;;;4973263;28;20875;-66
2023/04/13 08:16:11;;;;;;;5.60;3.38;;;14.20;86.20;;;;;;4974571;28;20038;-66
2023/04/13 08:18:37;;;;;;;8.77;3.67;;;14.20;85.10;;;;;;4962266;28;20125;-65
2023/04/13 08:21:11;;;;;;;7.57;3.85;;;14.20;86.10;;;;;;4969918;28;20050;-65
2023/04/13 08:23:41;;;;;;;6.22;3.45;;;14.20;84.10;;;;;;4972878;28;20034;-67
2023/04/13 08:26:07;;;;;;;7.05;3.20;;;14.20;87.00;;;;;;4969892;28;20031;-67
2023/04/13 08:28:34;;;;;;;5.70;3.45;;;14.20;84.30;;;;;;4937213;28;20038;-65
2023/04/13 08:30:59;;;;;;;6.93;3.67;;;14.10;84.20;;;;;;4964399;28;20069;-66
2023/04/13 08:33:26;;;;;;;9.52;3.90;;;14.10;84.40;;;;;;4962885;28;20126;-65
2023/04/13 08:35:52;;;;;;;19.80;4.40;;;14.00;83.70;;;;;;4974312;28;20213;-67
2023/04/13 08:38:18;;;;;;;7.40;3.95;;;14.10;85.40;;;;;;4968792;28;20047;-67
2023/04/13 08:40:46;;;;;;;24.25;4.38;;;14.30;85.00;;;;;;4970191;28;20050;-66
2023/04/13 08:43:12;;;;;;;7.28;3.88;;;14.30;84.40;;;;;;4967202;28;20043;-67
2023/04/13 08:45:41;;;;;;;14.20;4.30;;;14.40;82.90;;;;;;4972130;28;20050;-67
2023/04/13 08:48:10;;;;;;;21.50;4.45;;;14.30;82.80;;;;;;4959770;28;20114;-65
2023/04/13 08:50:36;;;;;;;6.45;3.90;;;14.40;83.40;;;;;;4970684;28;20050;-67
2023/04/13 08:53:02;;;;;;;5.93;3.88;;;14.40;83.10;;;;;;4973311;28;20055;-66
2023/04/13 08:55:28;;;;;;;5.50;3.72;;;14.40;83.20;;;;;;4966801;28;20039;-66
2023/04/13 08:57:56;;;;;;;4.55;3.50;;;14.40;82.40;;;;;;4968530;28;20577;-65
2023/04/13 09:00:24;;;;;;;6.47;3.35;;;14.40;81.80;;;;;;4960408;28;20507;-66
2023/04/13 09:02:57;;;;;;;5.45;3.45;;;14.50;83.60;;;;;;4990653;28;20027;-65
2023/04/13 09:05:25;;;;;;;11.90;3.15;;;14.60;82.40;;;;;;4971170;28;20495;-65
2023/04/13 09:07:52;;;;;;;5.97;3.13;;;14.70;82.70;;;;;;4955912;28;20470;-66
2023/04/13 09:10:22;;;;;;;4.35;3.28;;;14.70;82.80;;;;;;4964401;28;20027;-66
2023/04/13 09:12:51;;;;;;;6.03;4.38;;;14.90;82.80;;;;;;4969069;28;20170;-66
2023/04/13 09:15:17;;;;;;;5.72;3.50;;;14.90;82.20;;;;;;4967374;28;20042;-66
2023/04/13 09:17:43;;;;;;;4.97;3.28;;;14.80;81.00;;;;;;4961844;28;20393;-66
2023/04/13 09:20:13;;;;;;;4.75;3.10;;;14.70;81.80;;;;;;4967902;28;20054;-65
2023/04/13 09:22:39;;;;;;;4.40;3.33;;;14.80;81.80;;;;;;4965680;28;20112;-66
2023/04/13 09:25:06;;;;;;;5.88;3.05;;;14.80;79.70;;;;;;4965441;28;20051;-65
2023/04/13 09:27:34;;;;;;;4.63;3.20;;;14.80;79.80;;;;;;4971953;28;20085;-66
2023/04/13 09:30:01;;;;;;;5.22;3.53;;;14.80;79.10;;;;;;4967680;28;20078;-65
2023/04/13 09:32:27;;;;;;;6.75;3.25;;;14.90;77.30;;;;;;4966908;28;20073;-66
2023/04/13 09:35:03;;;;;;;4.57;3.00;;;14.90;80.00;;;;;;4976946;28;20104;-65
2023/04/13 09:37:31;;;;;;;6.32;3.42;;;14.90;78.60;;;;;;4959023;28;20143;-65
2023/04/13 09:40:10;;;;;;;6.65;4.65;;;14.90;80.90;;;;;;4969822;28;20053;-65
2023/04/13 09:42:37;;;;;;;5.20;2.90;;;15.00;79.40;;;;;;4973367;28;20040;-66
2023/04/13 09:45:03;;;;;;;4.50;2.42;;;15.00;77.00;;;;;;4974654;28;20074;-66
2023/04/13 09:47:39;;;;;;;9.70;2.70;;;14.90;77.50;;;;;;4972994;28;20048;-66
2023/04/13 09:50:21;;;;;;;8.27;3.03;;;14.80;78.20;;;;;;4966626;28;20047;-65
2023/04/13 09:52:57;;;;;;;4.43;2.78;;;14.70;77.50;;;;;;4973326;28;20038;-66
2023/04/13 09:55:23;;;;;;;4.32;2.65;;;14.70;78.20;;;;;;4969063;28;20152;-65
2023/04/13 09:57:48;;;;;;;5.10;3.30;;;14.80;76.20;;;;;;4968807;28;20121;-66
2023/04/13 10:00:19;;;;;;;8.32;3.22;;;14.80;76.90;;;;;;4964403;28;20117;-66
2023/04/13 10:02:48;;;;;;;4.00;2.67;;;14.90;77.30;;;;;;4961934;28;20728;-65
2023/04/13 10:05:14;;;;;;;5.32;3.17;;;15.00;76.70;;;;;;4966772;28;20819;-65
2023/04/13 10:07:43;;;;;;;8.15;2.63;;;15.00;78.30;;;;;;4969091;28;20031;-66
2023/04/13 10:10:09;;;;;;;4.00;3.10;;;15.10;79.50;;;;;;4972301;28;20050;-66
2023/04/13 10:12:52;;;;;;;5.28;2.70;;;15.20;78.40;;;;;;4970488;28;20113;-65
2023/04/13 10:15:17;;;;;;;6.50;2.55;;;15.20;76.50;;;;;;4971924;28;20060;-66
2023/04/13 10:18:00;;;;;;;3.40;2.65;;;15.20;75.10;;;;;;4978619;28;20034;-65
2023/04/13 10:20:28;;;;;;;8.23;2.60;;;15.10;75.20;;;;;;4972648;28;20727;-65
2023/04/13 10:22:54;;;;;;;2.92;2.63;;;15.20;77.10;;;;;;4972111;28;20531;-66
2023/04/13 10:25:19;;;;;;;7.60;3.10;;;15.20;76.00;;;;;;4977137;28;20052;-66
2023/04/13 10:27:58;;;;;;;8.77;3.63;;;15.30;76.60;;;;;;4981684;28;20379;-65
2023/04/13 10:30:25;;;;;;;7.22;3.90;;;15.30;76.20;;;;;;4975585;28;20038;-65
2023/04/13 10:33:05;;;;;;;8.38;4.25;;;15.40;75.40;;;;;;4961721;28;20253;-66
2023/04/13 10:35:34;;;;;;;5.00;2.92;;;15.30;75.10;;;;;;4973222;28;20035;-65
2023/04/13 10:38:00;;;;;;;7.63;4.43;;;15.20;74.10;;;;;;4981809;28;20039;-66
2023/04/13 10:40:25;;;;;;;8.70;3.28;;;15.20;74.70;;;;;;4977336;28;20243;-65
2023/04/13 10:42:51;;;;;;;7.68;3.08;;;15.10;74.80;;;;;;4967583;28;20034;-66
2023/04/13 10:45:17;;;;;;;5.00;3.17;;;15.00;75.10;;;;;;4981251;28;20100;-65
2023/04/13 10:47:43;;;;;;;7.30;3.40;;;15.00;74.50;;;;;;4966881;28;21569;-65
2023/04/13 10:50:26;;;;;;;7.75;3.20;;;15.10;74.60;;;;;;4976036;28;20685;-66
2023/04/13 10:52:56;;;;;;;6.03;3.22;;;15.20;75.00;;;;;;4962150;28;20045;-66
2023/04/13 10:55:26;;;;;;;5.97;3.15;;;15.30;74.50;;;;;;4978163;28;20244;-65
2023/04/13 10:57:55;;;;;;;11.70;3.28;;;15.20;72.80;;;;;;4980601;28;20161;-65
2023/04/13 11:00:22;;;;;;;5.07;2.95;;;15.20;73.60;;;;;;4963680;28;20038;-65
2023/04/13 11:02:49;;;;;;;9.57;3.20;;;15.30;75.20;;;;;;4972409;28;20054;-66
2023/04/13 11:05:21;;;;;;;5.03;2.75;;;15.40;74.20;;;;;;4964807;28;20042;-65
2023/04/13 11:07:50;;;;;;;3.13;2.42;;;15.40;72.30;;;;;;4966950;28;20045;-66
2023/04/13 11:10:27;;;;;;;5.70;2.85;;;15.40;71.90;;;;;;4968860;28;20035;-66
2023/04/13 11:12:55;;;;;;;5.47;2.42;;;15.40;70.80;;;;;;4965782;28;20054;-65
2023/04/13 11:15:22;;;;;;;4.10;2.50;;;15.50;71.00;;;;;;4966225;28;20125;-66
2023/04/13 11:17:59;;;;;;;6.00;2.85;;;15.60;70.30;;;;;;4965049;28;20038;-66
2023/04/13 11:20:33;;;;;;;5.82;2.63;;;15.60;72.10;;;;;;4975938;28;20053;-66
2023/04/13 11:23:01;;;;;;;6.15;3.10;;;15.70;69.40;;;;;;4956323;28;20043;-66
2023/04/13 11:25:27;;;;;;;6.10;2.10;;;15.70;69.70;;;;;;4975709;28;20047;-65
2023/04/13 11:28:00;;;;;;;6.85;2.10;;;15.70;69.50;;;;;;4962213;28;20116;-67
2023/04/13 11:30:27;;;;;;;4.53;1.90;;;15.70;69.00;;;;;;4966107;28;20043;-66
2023/04/13 11:32:53;;;;;;;2.85;1.80;;;15.70;69.90;;;;;;4971810;28;20030;-66
2023/04/13 11:35:21;;;;;;;4.43;1.98;;;15.70;69.40;;;;;;4974726;28;20038;-67
2023/04/13 11:37:51;;;;;;;3.55;1.98;;;15.70;67.50;;;;;;4974949;28;20663;-67
2023/04/13 11:40:20;;;;;;;4.50;2.08;;;15.60;69.10;;;;;;4967822;28;20054;-66
2023/04/13 11:42:52;;;;;;;1.80;1.45;;;15.60;67.90;;;;;;4955499;28;20625;-66
2023/04/13 11:45:18;;;;;;;4.00;1.88;;;15.50;69.30;;;;;;4973602;28;20045;-66
2023/04/13 11:47:44;;;;;;;8.15;3.67;;;15.50;67.80;;;;;;4967304;28;20046;-67
2023/04/13 11:50:11;;;;;;;4.05;1.90;;;15.50;67.80;;;;;;4970525;28;20517;-66
2023/04/13 11:52:38;;;;;;;3.63;2.00;;;15.60;67.70;;;;;;4972304;28;20050;-66
2023/04/13 11:55:06;;;;;;;2.47;1.55;;;15.60;66.90;;;;;;4970091;28;20133;-66
2023/04/13 11:57:32;;;;;;;2.80;1.80;;;15.70;65.30;;;;;;4971443;28;20497;-65
2023/04/13 11:59:58;;;;;;;2.70;1.85;;;15.70;65.30;;;;;;4973932;28;20053;-65
2023/04/13 12:02:29;;;;;;;3.63;1.90;;;15.70;63.90;;;;;;4962559;28;20041;-66
2023/04/13 12:04:55;;;;;;;2.83;2.10;;;15.60;64.30;;;;;;4959842;28;20259;-67
2023/04/13 12:07:21;;;;;;;3.33;2.13;;;15.60;64.10;;;;;;4961610;28;20034;-67
2023/04/13 12:09:50;;;;;;;4.45;2.70;;;15.60;65.10;;;;;;4961766;28;20392;-66
2023/04/13 12:12:23;;;;;;;4.32;2.50;;;15.50;64.50;;;;;;4963248;28;21438;-66
2023/04/13 12:14:56;;;;;;;3.92;1.50;;;15.60;66.30;;;;;;4961703;28;20038;-66
2023/04/13 12:17:30;;;;;;;3.67;1.80;;;15.70;65.00;;;;;;4970028;28;20574;-67
2023/04/13 12:19:57;;;;;;;3.10;2.00;;;15.70;64.60;;;;;;4957680;28;20078;-67
2023/04/13 12:22:23;;;;;;;3.60;1.88;;;15.70;64.60;;;;;;4966031;28;20038;-67
2023/04/13 12:24:49;;;;;;;5.05;2.30;;;15.60;64.70;;;;;;4964721;28;20070;-66
2023/04/13 12:27:16;;;;;;;5.25;1.73;;;15.70;66.90;;;;;;4968608;28;20771;-66
2023/04/13 12:29:42;;;;;;;3.38;1.90;;;15.80;64.60;;;;;;4965378;28;20034;-66
2023/04/13 12:32:14;;;;;;;5.03;2.28;;;15.80;64.20;;;;;;4972002;28;20562;-65
2023/04/13 12:34:40;;;;;;;5.47;2.00;;;15.80;66.70;;;;;;4975279;28;20046;-66
2023/04/13 12:37:06;;;;;;;6.63;2.03;;;15.80;64.50;;;;;;4957754;28;20054;-65
2023/04/13 12:39:32;;;;;;;3.22;2.05;;;15.80;64.30;;;;;;4971701;28;20767;-65
2023/04/13 12:41:58;;;;;;;5.95;2.22;;;15.80;65.30;;;;;;4979211;28;20133;-66
2023/04/13 12:44:23;;;;;;;2.65;1.90;;;15.90;65.50;;;;;;4976176;28;20115;-66
2023/04/13 12:46:49;;;;;;;4.45;1.92;;;15.90;65.30;;;;;;4964775;28;20144;-66
2023/04/13 12:49:15;;;;;;;4.75;1.80;;;15.80;66.40;;;;;;4973563;28;20419;-66